Time;durP1;ratioP1;P1;durP2;ratioP2;P2;SDS_P1;SDS_P2;PMS_P1;PMS_P2;Temp;Humidity;BMP_temperature;BMP_pressure;BME280_temperature;BME280_humidity;BME280_pressure;Samples;Min_cycle;Max_cycle;Signal;HPM_P1;HPM_P2
2021/12/26 00:01:10;;;;;;;100.68;22.55;;;3.90;99.90;;;;;;6287655;22;20035;-82
2021/12/26 00:03:58;;;;;;;80.65;20.80;;;3.90;99.90;;;;;;6308766;22;20130;-83
2021/12/26 00:06:48;;;;;;;82.15;22.13;;;3.90;99.90;;;;;;6286109;22;20035;-82
2021/12/26 00:09:35;;;;;;;93.32;22.02;;;3.90;99.90;;;;;;6304478;22;20374;-83
2021/12/26 00:12:25;;;;;;;145.35;22.88;;;3.80;99.90;;;;;;6282245;22;20046;-84
2021/12/26 00:15:13;;;;;;;151.38;24.65;;;3.80;99.90;;;;;;6307620;22;20027;-82
2021/12/26 00:18:09;;;;;;;126.45;23.35;;;3.70;99.90;;;;;;6305150;22;20023;-82
2021/12/26 00:20:56;;;;;;;199.48;25.25;;;3.80;99.90;;;;;;6266980;22;20050;-82
2021/12/26 00:23:47;;;;;;;105.43;23.35;;;3.70;99.90;;;;;;6262378;22;20034;-82
2021/12/26 00:26:37;;;;;;;110.07;23.88;;;3.70;99.90;;;;;;6284778;22;20053;-82
2021/12/26 00:29:26;;;;;;;142.43;25.75;;;3.70;99.90;;;;;;6262747;22;20027;-83
2021/12/26 00:32:13;;;;;;;426.25;36.20;;;3.70;99.90;;;;;;6284339;22;20039;-82
2021/12/26 00:35:03;;;;;;;312.70;32.08;;;3.70;99.90;;;;;;6271113;22;20038;-83
2021/12/26 00:37:51;;;;;;;191.45;28.77;;;3.60;99.90;;;;;;6297457;22;20069;-83
2021/12/26 00:40:39;;;;;;;366.58;36.63;;;3.60;99.90;;;;;;6319047;22;20027;-82
2021/12/26 00:43:33;;;;;;;150.15;26.70;;;3.70;99.90;;;;;;6318446;22;20030;-82
2021/12/26 00:46:23;;;;;;;153.88;25.58;;;3.70;99.90;;;;;;6326193;22;20027;-82
2021/12/26 00:49:13;;;;;;;166.65;25.08;;;3.70;99.90;;;;;;6300283;22;20027;-84
2021/12/26 00:52:04;;;;;;;176.90;25.88;;;3.70;99.90;;;;;;6292523;22;20089;-83
2021/12/26 00:54:53;;;;;;;320.27;29.48;;;3.70;99.90;;;;;;6295488;22;20094;-83
2021/12/26 00:57:41;;;;;;;508.67;38.33;;;3.70;99.90;;;;;;6296344;22;20030;-82
2021/12/26 01:00:37;;;;;;;428.85;34.13;;;3.60;99.90;;;;;;6313242;22;20038;-84
2021/12/26 01:03:28;;;;;;;132.13;23.85;;;3.60;99.90;;;;;;6307911;22;20088;-82
2021/12/26 01:06:16;;;;;;;183.90;26.95;;;3.60;99.90;;;;;;6284960;22;20027;-82
2021/12/26 01:09:08;;;;;;;268.00;29.48;;;3.60;99.90;;;;;;6283262;22;20038;-83
2021/12/26 01:12:00;;;;;;;327.98;29.70;;;3.60;99.90;;;;;;6283867;22;20311;-83
2021/12/26 01:14:53;;;;;;;160.20;25.60;;;3.60;99.90;;;;;;6267863;22;20102;-82
2021/12/26 01:17:43;;;;;;;178.00;27.65;;;3.60;99.90;;;;;;6290065;22;20357;-83
2021/12/26 01:20:48;;;;;;;258.25;30.00;;;3.70;99.90;;;;;;6286447;22;20034;-82
2021/12/26 01:23:36;;;;;;;197.77;25.80;;;3.70;99.90;;;;;;6284918;22;20368;-84
2021/12/26 01:26:27;;;;;;;203.88;28.63;;;3.70;99.90;;;;;;6245303;22;20183;-82
2021/12/26 01:29:23;;;;;;;175.82;26.35;;;3.70;99.90;;;;;;6308256;22;20095;-82
2021/12/26 01:32:10;;;;;;;195.77;28.58;;;3.70;99.90;;;;;;6267025;22;20027;-83
2021/12/26 01:34:58;;;;;;;163.15;28.60;;;3.70;99.90;;;;;;6263372;22;20080;-83
2021/12/26 01:37:48;;;;;;;155.85;28.08;;;3.70;99.90;;;;;;6267426;22;20027;-82
2021/12/26 01:40:37;;;;;;;206.60;30.27;;;3.70;99.90;;;;;;6308712;22;20034;-83
2021/12/26 01:43:30;;;;;;;203.27;27.80;;;3.70;99.90;;;;;;6246483;22;20019;-80
2021/12/26 01:46:18;;;;;;;251.68;29.08;;;3.70;99.90;;;;;;6282575;22;20023;-83
2021/12/26 01:49:07;;;;;;;201.07;29.30;;;3.70;99.90;;;;;;6263464;22;20358;-82
2021/12/26 01:51:58;;;;;;;311.13;33.38;;;3.60;99.90;;;;;;6275522;22;20335;-84
2021/12/26 01:54:49;;;;;;;135.20;28.50;;;3.70;99.90;;;;;;6282786;22;20330;-83
2021/12/26 01:57:39;;;;;;;223.60;31.67;;;3.60;99.90;;;;;;6306690;22;20101;-83
2021/12/26 02:00:27;;;;;;;273.98;30.50;;;3.60;99.90;;;;;;6265045;22;20168;-84
2021/12/26 02:03:15;;;;;;;301.27;31.42;;;3.70;99.90;;;;;;6284198;22;20045;-83
2021/12/26 02:06:04;;;;;;;189.68;30.98;;;3.60;99.90;;;;;;6282925;22;20023;-83
2021/12/26 02:08:55;;;;;;;302.63;38.17;;;3.70;99.90;;;;;;6283919;22;20023;-84
2021/12/26 02:11:47;;;;;;;312.45;33.85;;;3.60;99.90;;;;;;6282659;22;20092;-82
2021/12/26 02:14:34;;;;;;;522.60;42.53;;;3.60;99.90;;;;;;6284244;22;20027;-80
2021/12/26 02:17:22;;;;;;;229.35;33.22;;;3.60;99.90;;;;;;6263708;22;20023;-83
2021/12/26 02:20:37;;;;;;;261.13;33.13;;;3.50;99.90;;;;;;6286739;22;20023;-81
2021/12/26 02:23:31;;;;;;;223.80;32.63;;;3.50;99.90;;;;;;6308747;22;20368;-82
2021/12/26 02:29:25;;;;;;;233.65;33.70;;;3.50;99.90;;;;;;6286042;22;20448;-82
2021/12/26 02:32:16;;;;;;;182.32;32.72;;;3.50;99.90;;;;;;6306782;22;20442;-83
2021/12/26 02:35:04;;;;;;;460.50;41.35;;;3.50;99.90;;;;;;6272286;22;20425;-82
2021/12/26 02:37:53;;;;;;;415.08;40.00;;;3.50;99.90;;;;;;6296089;22;20024;-83
2021/12/26 02:40:43;;;;;;;215.48;33.72;;;3.50;99.90;;;;;;6319818;22;20027;-82
2021/12/26 02:43:32;;;;;;;365.67;38.88;;;3.40;99.90;;;;;;6325598;22;20015;-83
2021/12/26 02:46:20;;;;;;;402.48;38.17;;;3.40;99.90;;;;;;6303102;22;20087;-84
2021/12/26 02:49:08;;;;;;;266.80;35.95;;;3.40;99.90;;;;;;6296772;22;20080;-82
2021/12/26 02:51:55;;;;;;;223.93;33.67;;;3.40;99.90;;;;;;6320267;22;20117;-84
2021/12/26 02:54:43;;;;;;;447.75;41.95;;;3.40;99.90;;;;;;6274668;22;20049;-82
2021/12/26 02:57:30;;;;;;;199.20;35.33;;;3.40;99.90;;;;;;6271508;22;20049;-83
2021/12/26 03:00:20;;;;;;;264.58;38.15;;;3.40;99.90;;;;;;6286500;22;20019;-82
2021/12/26 03:03:07;;;;;;;246.10;38.05;;;3.40;99.90;;;;;;6287750;22;20422;-82
2021/12/26 03:06:12;;;;;;;294.05;38.65;;;3.40;99.90;;;;;;6285453;22;20042;-81
2021/12/26 03:09:03;;;;;;;424.02;43.65;;;3.40;99.90;;;;;;6287851;22;20022;-82
2021/12/26 03:11:50;;;;;;;548.00;46.08;;;3.40;99.90;;;;;;6285758;22;20043;-82
2021/12/26 03:14:42;;;;;;;345.88;40.95;;;3.40;99.90;;;;;;6308218;22;20019;-84
2021/12/26 03:17:32;;;;;;;581.38;48.75;;;3.30;99.90;;;;;;6282406;22;20024;-84
2021/12/26 03:20:23;;;;;;;383.20;42.38;;;3.30;99.90;;;;;;6283533;22;20019;-81
2021/12/26 03:23:13;;;;;;;658.45;52.88;;;3.30;99.90;;;;;;6283656;22;20049;-82
2021/12/26 03:26:08;;;;;;;347.85;41.55;;;3.40;99.90;;;;;;6284845;22;20156;-81
2021/12/26 03:28:56;;;;;;;428.92;43.95;;;3.40;99.90;;;;;;6285811;22;20038;-83
2021/12/26 03:31:45;;;;;;;180.95;33.88;;;3.40;99.90;;;;;;6309069;22;20030;-84
2021/12/26 03:34:33;;;;;;;293.58;40.83;;;3.40;99.90;;;;;;6266296;22;20019;-81
2021/12/26 03:37:25;;;;;;;278.98;37.55;;;3.40;99.90;;;;;;6308281;22;20026;-81
2021/12/26 03:40:15;;;;;;;255.15;37.08;;;3.40;99.90;;;;;;6244784;22;20049;-80
2021/12/26 03:43:02;;;;;;;292.77;37.13;;;3.40;99.90;;;;;;6285756;22;20024;-82
2021/12/26 03:46:00;;;;;;;227.48;36.75;;;3.40;99.90;;;;;;6290622;22;20369;-84
2021/12/26 03:48:49;;;;;;;215.02;34.72;;;3.40;99.90;;;;;;6262989;22;20027;-84
2021/12/26 03:51:37;;;;;;;234.32;39.00;;;3.40;99.90;;;;;;6304263;22;20034;-83
2021/12/26 03:54:24;;;;;;;249.52;37.72;;;3.40;99.90;;;;;;6261239;22;20034;-82
2021/12/26 03:57:12;;;;;;;261.17;37.78;;;3.40;99.90;;;;;;6277581;22;20099;-82
2021/12/26 03:59:59;;;;;;;225.60;39.63;;;3.40;99.90;;;;;;6283570;22;20027;-85
2021/12/26 04:02:46;;;;;;;205.38;36.03;;;3.40;99.90;;;;;;6304370;22;20030;-81
2021/12/26 04:05:35;;;;;;;334.55;38.58;;;3.40;99.90;;;;;;6287112;22;20055;-81
2021/12/26 04:08:22;;;;;;;254.82;39.22;;;3.40;99.90;;;;;;6287027;22;20031;-82
2021/12/26 04:11:09;;;;;;;226.85;36.38;;;3.40;99.90;;;;;;6307578;22;20031;-81
2021/12/26 04:14:00;;;;;;;222.10;33.95;;;3.40;99.90;;;;;;6246199;22;20030;-83
2021/12/26 04:16:49;;;;;;;290.80;37.95;;;3.40;99.90;;;;;;6266569;22;20400;-80
2021/12/26 04:19:39;;;;;;;294.13;37.70;;;3.40;99.90;;;;;;6269582;22;20042;-80
2021/12/26 04:22:27;;;;;;;222.50;35.10;;;3.40;99.90;;;;;;6314701;22;20030;-82
2021/12/26 04:25:17;;;;;;;196.50;34.80;;;3.40;99.90;;;;;;6275805;22;20027;-81
2021/12/26 04:28:04;;;;;;;135.05;33.38;;;3.30;99.90;;;;;;6305677;22;20030;-82
2021/12/26 04:30:53;;;;;;;137.93;32.40;;;3.40;99.90;;;;;;6284253;22;20027;-84
2021/12/26 04:33:41;;;;;;;324.70;40.08;;;3.40;99.90;;;;;;6283826;22;20027;-85
2021/12/26 04:36:30;;;;;;;493.50;46.40;;;3.40;99.90;;;;;;6243435;22;20024;-84
2021/12/26 04:39:18;;;;;;;514.85;47.33;;;3.40;99.90;;;;;;6262995;22;20019;-81
2021/12/26 04:42:06;;;;;;;183.90;36.45;;;3.40;99.90;;;;;;6306020;22;20445;-81
2021/12/26 04:44:56;;;;;;;147.55;32.78;;;3.40;99.90;;;;;;6263034;22;20035;-83
2021/12/26 04:47:44;;;;;;;228.57;36.92;;;3.40;99.90;;;;;;6282911;22;20038;-82
2021/12/26 04:50:34;;;;;;;233.30;36.42;;;3.40;99.90;;;;;;6283337;22;20023;-82
2021/12/26 04:53:26;;;;;;;135.32;31.48;;;3.40;99.90;;;;;;6282518;22;20023;-81
2021/12/26 04:56:15;;;;;;;228.32;37.78;;;3.40;99.90;;;;;;6281412;22;20057;-81
2021/12/26 04:59:06;;;;;;;156.82;32.92;;;3.50;99.90;;;;;;6305678;22;20027;-82
2021/12/26 05:02:08;;;;;;;126.85;30.75;;;3.50;99.90;;;;;;6282441;22;20027;-84
2021/12/26 05:05:10;;;;;;;152.13;32.75;;;3.50;99.90;;;;;;6267804;22;20030;-83
2021/12/26 05:07:57;;;;;;;243.43;37.22;;;3.50;99.90;;;;;;6280517;22;20031;-84
2021/12/26 05:10:45;;;;;;;176.88;33.58;;;3.50;99.90;;;;;;6280730;22;20084;-84
2021/12/26 05:13:34;;;;;;;138.80;33.33;;;3.40;99.90;;;;;;6268523;22;20043;-82
2021/12/26 05:16:21;;;;;;;165.75;32.22;;;3.50;99.90;;;;;;6233193;22;20027;-82
2021/12/26 05:19:11;;;;;;;148.55;33.20;;;3.50;99.90;;;;;;6283073;22;20390;-83
2021/12/26 05:22:03;;;;;;;163.77;31.92;;;3.40;99.90;;;;;;6306952;22;20027;-81
2021/12/26 05:24:52;;;;;;;176.77;33.50;;;3.40;99.90;;;;;;6284944;22;20299;-81
2021/12/26 05:27:40;;;;;;;180.10;31.63;;;3.40;99.90;;;;;;6282933;22;20034;-84
2021/12/26 05:30:27;;;;;;;152.75;32.47;;;3.40;99.90;;;;;;6261155;22;20031;-83
2021/12/26 05:33:17;;;;;;;154.25;31.88;;;3.40;99.90;;;;;;6261430;22;20042;-82
2021/12/26 05:36:05;;;;;;;163.45;33.13;;;3.40;99.90;;;;;;6242009;22;20050;-81
2021/12/26 05:38:53;;;;;;;128.68;30.40;;;3.40;99.90;;;;;;6262327;22;20038;-82
2021/12/26 05:41:43;;;;;;;732.67;56.55;;;3.40;99.90;;;;;;6307501;22;20095;-82
2021/12/26 05:44:31;;;;;;;350.67;39.67;;;3.50;99.90;;;;;;6285339;22;20031;-82
2021/12/26 05:47:19;;;;;;;315.85;38.97;;;3.40;99.90;;;;;;6303565;22;20019;-83
2021/12/26 05:50:09;;;;;;;958.13;72.80;;;3.40;99.90;;;;;;6284382;22;20080;-82
2021/12/26 05:52:57;;;;;;;228.27;33.25;;;3.40;99.90;;;;;;6284153;22;20023;-82
2021/12/26 05:55:49;;;;;;;192.65;34.03;;;3.40;99.90;;;;;;6307273;22;20023;-83
2021/12/26 05:58:36;;;;;;;260.88;39.33;;;3.40;99.90;;;;;;6283494;22;20034;-81
2021/12/26 06:01:27;;;;;;;150.68;32.92;;;3.50;99.90;;;;;;6306675;22;20102;-83
2021/12/26 06:04:16;;;;;;;149.07;32.72;;;3.40;99.90;;;;;;6305097;22;20275;-82
2021/12/26 06:07:03;;;;;;;174.32;33.95;;;3.40;99.90;;;;;;6282790;22;20030;-81
2021/12/26 06:09:51;;;;;;;222.52;35.97;;;3.40;99.90;;;;;;6283571;22;20119;-84
2021/12/26 06:12:38;;;;;;;135.45;30.40;;;3.40;99.90;;;;;;6304759;22;20027;-84
2021/12/26 06:15:27;;;;;;;387.30;41.42;;;3.40;99.90;;;;;;6285340;22;20138;-83
2021/12/26 06:18:17;;;;;;;544.08;45.78;;;3.40;99.90;;;;;;6242186;22;20038;-84
2021/12/26 06:21:05;;;;;;;425.58;39.63;;;3.40;99.90;;;;;;6263694;22;20103;-84
2021/12/26 06:23:55;;;;;;;429.30;41.58;;;3.40;99.90;;;;;;6261537;22;20077;-84
2021/12/26 06:26:46;;;;;;;445.75;42.30;;;3.40;99.90;;;;;;6306008;22;20081;-81
2021/12/26 06:29:35;;;;;;;;;;;3.40;99.90;;;;;;6246328;22;20084;-83
2021/12/26 06:32:22;;;;;;;450.55;48.55;;;3.30;99.90;;;;;;6283875;22;19925;-82
2021/12/26 06:35:12;;;;;;;146.80;33.67;;;3.40;99.90;;;;;;6284561;22;20137;-82
2021/12/26 06:37:59;;;;;;;416.23;43.40;;;3.40;99.90;;;;;;6283212;22;20030;-81
2021/12/26 06:40:46;;;;;;;327.02;40.65;;;3.40;99.90;;;;;;6264737;22;20477;-82
2021/12/26 06:43:37;;;;;;;139.05;32.35;;;3.30;99.90;;;;;;6284724;22;20103;-82
2021/12/26 06:46:25;;;;;;;144.10;32.70;;;3.40;99.90;;;;;;6262275;22;20023;-82
2021/12/26 06:49:17;;;;;;;174.75;33.90;;;3.40;99.90;;;;;;6306391;22;20130;-84
2021/12/26 06:52:05;;;;;;;120.50;29.65;;;3.40;99.90;;;;;;6284734;22;20449;-82
2021/12/26 06:54:55;;;;;;;146.60;33.25;;;3.40;99.90;;;;;;6307597;22;20031;-80
2021/12/26 06:57:43;;;;;;;114.95;31.10;;;3.40;99.90;;;;;;6262876;22;20344;-84
2021/12/26 07:00:30;;;;;;;132.30;31.65;;;3.40;99.90;;;;;;6285298;22;20031;-83
2021/12/26 07:03:18;;;;;;;137.93;30.75;;;3.50;99.90;;;;;;6305717;22;20034;-83
2021/12/26 07:06:06;;;;;;;111.18;29.67;;;3.40;99.90;;;;;;6284419;22;20129;-82
2021/12/26 07:08:53;;;;;;;129.48;31.58;;;3.50;99.90;;;;;;6285404;22;20088;-82
2021/12/26 07:20:37;;;;;;;127.50;31.67;;;3.50;99.90;;;;;;6180844;23;20348;-82
2021/12/26 07:27:30;;;;;;;123.63;30.25;;;3.50;99.90;;;;;;6180667;23;20087;-82
2021/12/26 07:38:42;;;;;;;163.93;32.95;;;3.50;99.90;;;;;;6125075;23;20046;-83
2021/12/26 07:46:06;;;;;;;159.95;35.35;;;3.60;99.90;;;;;;6108921;23;20054;-81
2021/12/26 07:49:41;;;;;;;140.27;33.92;;;3.60;99.90;;;;;;6107525;23;20023;-81
2021/12/26 08:01:22;;;;;;;123.03;30.15;;;3.80;99.90;;;;;;5919857;24;20027;-83
2021/12/26 08:47:19;;;;;;;103.75;32.20;;;4.20;99.90;;;;;;6127696;23;20014;-83
2021/12/26 08:59:15;;;;;;;91.65;31.08;;;4.40;99.90;;;;;;6094746;23;20057;-80
2021/12/26 09:10:46;;;;;;;83.10;31.33;;;4.60;99.90;;;;;;6130599;23;20098;-83
2021/12/26 09:13:33;;;;;;;66.90;27.52;;;4.60;99.90;;;;;;6132282;23;20034;-83
2021/12/26 09:16:21;;;;;;;71.65;28.20;;;4.50;99.90;;;;;;6221788;23;20073;-83
2021/12/26 09:19:09;;;;;;;69.00;26.65;;;4.50;99.90;;;;;;6227062;23;20647;-84
2021/12/26 09:21:58;;;;;;;68.95;28.13;;;4.50;99.90;;;;;;6316658;22;20023;-85
2021/12/26 09:24:46;;;;;;;68.47;28.55;;;4.50;99.90;;;;;;6324164;22;20032;-81
2021/12/26 09:27:33;;;;;;;69.38;27.35;;;4.50;99.90;;;;;;6279393;22;20029;-82
2021/12/26 09:30:21;;;;;;;67.35;26.38;;;4.50;99.90;;;;;;6278290;22;20109;-82
2021/12/26 09:33:08;;;;;;;58.97;25.65;;;4.60;99.90;;;;;;6307929;22;20050;-84
2021/12/26 09:35:56;;;;;;;58.38;24.98;;;4.60;99.90;;;;;;6332678;22;20031;-81
2021/12/26 09:38:45;;;;;;;51.88;22.90;;;4.80;99.90;;;;;;6330645;22;20065;-83
2021/12/26 09:41:33;;;;;;;56.92;25.92;;;4.90;99.90;;;;;;6310977;22;20011;-80
2021/12/26 09:44:21;;;;;;;46.03;23.23;;;5.10;99.90;;;;;;6325363;22;20075;-81
2021/12/26 09:47:10;;;;;;;50.05;24.27;;;5.20;99.90;;;;;;6298290;22;20085;-84
2021/12/26 09:49:57;;;;;;;45.03;22.35;;;5.40;99.90;;;;;;6296247;22;20027;-81
2021/12/26 09:52:47;;;;;;;39.20;21.63;;;5.50;99.90;;;;;;6280779;22;20031;-81
2021/12/26 09:55:34;;;;;;;38.17;21.20;;;5.60;99.90;;;;;;6300927;22;20019;-81
2021/12/26 09:58:21;;;;;;;39.10;21.17;;;5.70;99.90;;;;;;6283650;22;20023;-82
2021/12/26 10:01:10;;;;;;;32.45;18.80;;;5.80;99.90;;;;;;6324833;22;20027;-81
2021/12/26 10:04:23;;;;;;;35.38;20.88;;;5.90;99.90;;;;;;6307149;22;20038;-82
2021/12/26 10:07:15;;;;;;;33.45;19.85;;;6.00;99.90;;;;;;6287622;22;20475;-84
2021/12/26 10:10:06;;;;;;;31.77;19.33;;;6.20;99.90;;;;;;6285908;22;20027;-83
2021/12/26 10:12:54;;;;;;;32.83;19.20;;;6.30;99.90;;;;;;6289236;22;20261;-82
2021/12/26 10:24:22;;;;;;;22.88;15.27;;;6.70;99.90;;;;;;6202909;22;20110;-84
2021/12/26 10:31:18;;;;;;;26.83;16.75;;;6.70;99.90;;;;;;6310024;22;20003;-83
2021/12/26 10:54:44;;;;;;;31.13;18.80;;;6.10;99.90;;;;;;6221182;22;20078;-81
2021/12/26 10:57:41;;;;;;;31.20;18.63;;;6.20;99.90;;;;;;6285133;22;20024;-82
2021/12/26 11:04:13;;;;;;;30.65;18.23;;;6.20;99.90;;;;;;6303512;22;20104;-82
2021/12/26 11:07:05;;;;;;;24.02;15.38;;;6.30;99.90;;;;;;6306053;22;20103;-81
2021/12/26 11:10:19;;;;;;;26.98;17.02;;;6.40;99.90;;;;;;6281590;22;20378;-80
2021/12/26 11:13:16;;;;;;;24.98;16.50;;;6.70;99.90;;;;;;6280861;22;20438;-80
2021/12/26 11:16:06;;;;;;;25.17;16.63;;;7.40;99.90;;;;;;6282476;22;20303;-82
2021/12/26 11:18:54;;;;;;;22.02;14.45;;;8.10;99.90;;;;;;6303979;22;20023;-80
2021/12/26 11:26:08;;;;;;;16.55;11.25;;;8.80;99.90;;;;;;6120552;23;20032;-80
2021/12/26 11:28:57;;;;;;;16.45;12.75;;;8.80;99.90;;;;;;6180520;22;20033;-81
2021/12/26 11:31:44;;;;;;;15.90;11.95;;;9.10;99.90;;;;;;6305202;22;20102;-81
2021/12/26 11:34:31;;;;;;;17.02;12.43;;;9.10;99.90;;;;;;6304766;22;20341;-81
2021/12/26 11:37:19;;;;;;;13.45;9.82;;;9.10;99.90;;;;;;6262071;22;20473;-82
2021/12/26 11:40:15;;;;;;;14.60;9.90;;;9.10;99.90;;;;;;6307834;22;20030;-81
2021/12/26 11:56:11;;;;;;;9.07;6.75;;;10.50;99.90;;;;;;6205433;23;20043;-84
2021/12/26 12:07:22;;;;;;;6.20;5.32;;;13.30;99.90;;;;;;6061436;23;20340;-83
2021/12/26 12:10:37;;;;;;;5.72;5.13;;;12.00;99.90;;;;;;6070600;23;20027;-82
2021/12/26 12:13:29;;;;;;;7.15;5.75;;;11.20;99.90;;;;;;6179897;23;20423;-80
2021/12/26 12:16:22;;;;;;;8.20;6.38;;;10.70;99.90;;;;;;6179270;23;20029;-80
2021/12/26 12:19:12;;;;;;;8.52;6.43;;;10.20;99.90;;;;;;6154430;23;20156;-80
2021/12/26 12:22:08;;;;;;;8.30;6.43;;;9.80;99.90;;;;;;6158554;23;20060;-84
2021/12/26 12:24:55;;;;;;;10.55;6.80;;;9.50;99.90;;;;;;6161405;23;20061;-82
2021/12/26 12:28:17;;;;;;;8.40;6.45;;;9.40;99.90;;;;;;6160504;23;20223;-79
2021/12/26 12:31:07;;;;;;;9.18;5.75;;;9.30;99.90;;;;;;6177325;23;20036;-82
2021/12/26 12:34:07;;;;;;;7.88;5.60;;;9.10;99.90;;;;;;6179103;23;20071;-82
2021/12/26 12:37:00;;;;;;;3.65;3.10;;;8.80;99.90;;;;;;6179788;23;20393;-81
2021/12/26 12:40:19;;;;;;;5.32;4.05;;;8.50;99.90;;;;;;6222299;22;20024;-80
2021/12/26 12:43:11;;;;;;;4.13;3.35;;;8.20;99.90;;;;;;6273621;22;20031;-82
2021/12/26 12:46:04;;;;;;;5.72;4.53;;;8.20;99.90;;;;;;6273187;22;20119;-82
2021/12/26 12:49:08;;;;;;;5.47;4.63;;;8.20;99.90;;;;;;6272561;22;20028;-82
2021/12/26 12:51:56;;;;;;;8.43;5.60;;;8.10;99.90;;;;;;6252005;22;20083;-79
2021/12/26 12:54:49;;;;;;;9.00;5.88;;;8.00;99.90;;;;;;6251075;22;20423;-81
2021/12/26 12:57:41;;;;;;;7.80;5.82;;;7.90;99.90;;;;;;6274884;22;20043;-83
2021/12/26 13:00:30;;;;;;;6.45;5.30;;;7.80;99.90;;;;;;6251754;22;20395;-83
2021/12/26 13:03:19;;;;;;;8.20;5.93;;;7.70;99.90;;;;;;6276672;22;20027;-81
2021/12/26 13:06:08;;;;;;;6.13;5.50;;;7.70;99.90;;;;;;6271201;22;20031;-82
2021/12/26 13:08:57;;;;;;;7.10;6.00;;;7.70;99.90;;;;;;6274939;22;20031;-81
2021/12/26 13:11:44;;;;;;;7.00;5.90;;;7.70;99.90;;;;;;6282842;22;20038;-81
2021/12/26 13:14:38;;;;;;;7.68;5.97;;;7.60;99.90;;;;;;6281973;22;20467;-82
2021/12/26 13:17:26;;;;;;;7.47;6.35;;;7.60;99.90;;;;;;6293284;22;20027;-81
2021/12/26 13:20:23;;;;;;;7.88;6.28;;;7.60;99.90;;;;;;6284605;22;20355;-83
2021/12/26 13:23:11;;;;;;;7.35;6.55;;;7.50;99.90;;;;;;6303605;22;20034;-83
2021/12/26 13:26:07;;;;;;;7.25;6.40;;;7.50;99.90;;;;;;6282233;22;20377;-80
2021/12/26 13:28:57;;;;;;;8.82;7.45;;;7.50;99.90;;;;;;6280514;22;20027;-82
2021/12/26 13:31:45;;;;;;;8.98;7.32;;;7.40;99.90;;;;;;6304266;22;20027;-83
2021/12/26 13:34:39;;;;;;;8.30;6.63;;;7.40;99.90;;;;;;6281856;22;20033;-81
2021/12/26 13:37:33;;;;;;;8.85;7.03;;;7.40;99.90;;;;;;6269414;22;20042;-82
2021/12/26 13:40:23;;;;;;;7.90;6.78;;;7.40;99.90;;;;;;6297728;22;20019;-83
2021/12/26 13:43:12;;;;;;;8.77;7.22;;;7.40;99.90;;;;;;6278591;22;20081;-81
2021/12/26 13:46:01;;;;;;;9.80;7.07;;;7.40;99.90;;;;;;6298656;22;20038;-80
2021/12/26 13:48:52;;;;;;;9.65;7.35;;;7.50;99.90;;;;;;6296125;22;20034;-81
2021/12/26 13:51:45;;;;;;;6.80;6.10;;;7.80;99.90;;;;;;6292146;22;20038;-81
2021/12/26 13:54:48;;;;;;;6.78;5.93;;;8.20;99.90;;;;;;6292226;22;20019;-83
2021/12/26 13:57:35;;;;;;;6.60;5.10;;;8.80;99.90;;;;;;6305416;22;20023;-83
2021/12/26 14:00:23;;;;;;;7.47;5.25;;;9.10;99.90;;;;;;6306187;22;20095;-83
2021/12/26 14:03:12;;;;;;;6.50;4.97;;;9.20;99.90;;;;;;6304583;22;20028;-81
2021/12/26 14:06:00;;;;;;;5.03;4.53;;;9.20;99.90;;;;;;6307877;22;20090;-82
2021/12/26 14:08:55;;;;;;;6.05;4.10;;;9.10;99.90;;;;;;6278452;22;20032;-86
2021/12/26 14:11:43;;;;;;;7.25;4.97;;;8.90;99.90;;;;;;6299477;22;20077;-83
2021/12/26 14:14:37;;;;;;;5.20;4.70;;;8.70;99.90;;;;;;6277849;22;20027;-83
2021/12/26 14:17:24;;;;;;;7.03;5.18;;;8.50;99.90;;;;;;6292728;22;20023;-81
2021/12/26 14:28:16;;;;;;;8.73;6.43;;;8.30;99.90;;;;;;6208641;22;20022;-80
2021/12/26 14:31:09;;;;;;;11.32;8.45;;;8.30;99.90;;;;;;6288411;22;20050;-82
2021/12/26 14:33:59;;;;;;;9.50;6.78;;;8.20;99.90;;;;;;6288539;22;20092;-81
2021/12/26 14:36:58;;;;;;;8.48;6.78;;;8.10;99.90;;;;;;6287880;22;20019;-83
2021/12/26 14:39:45;;;;;;;7.57;6.43;;;8.10;99.90;;;;;;6309996;22;20019;-82
2021/12/26 14:42:33;;;;;;;7.55;6.38;;;8.00;99.90;;;;;;6287699;22;20080;-81
2021/12/26 14:45:20;;;;;;;11.07;7.25;;;7.80;99.90;;;;;;6285271;22;20019;-82
2021/12/26 14:48:10;;;;;;;9.07;6.90;;;7.70;99.90;;;;;;6284227;22;20031;-82
2021/12/26 14:51:18;;;;;;;8.48;6.57;;;7.60;99.90;;;;;;6283552;22;20107;-82
2021/12/26 14:54:11;;;;;;;8.32;7.28;;;7.50;99.90;;;;;;6282608;22;20023;-83
2021/12/26 14:56:59;;;;;;;9.07;7.38;;;7.50;99.90;;;;;;6283509;22;20019;-82
2021/12/26 14:59:57;;;;;;;10.90;8.18;;;7.40;99.90;;;;;;6283763;22;20034;-82
2021/12/26 15:02:58;;;;;;;9.93;8.05;;;7.40;99.90;;;;;;6282513;22;20027;-81
2021/12/26 15:05:52;;;;;;;10.60;8.43;;;7.30;99.90;;;;;;6283548;22;20027;-83
2021/12/26 15:08:39;;;;;;;12.02;9.20;;;7.30;99.90;;;;;;6263889;22;20038;-81
2021/12/26 15:11:27;;;;;;;11.15;8.55;;;7.30;99.90;;;;;;6262016;22;20031;-80
2021/12/26 15:14:23;;;;;;;12.48;9.88;;;7.30;99.90;;;;;;6303726;22;20051;-81
2021/12/26 15:17:15;;;;;;;11.93;9.38;;;7.20;99.90;;;;;;6282862;22;20345;-80
2021/12/26 15:20:29;;;;;;;11.80;9.48;;;7.10;99.90;;;;;;6306229;22;20343;-82
2021/12/26 15:23:26;;;;;;;11.07;9.15;;;7.10;99.90;;;;;;6305728;22;20023;-82
2021/12/26 15:26:23;;;;;;;11.63;9.48;;;7.00;99.90;;;;;;6281078;22;20288;-83
2021/12/26 15:29:11;;;;;;;11.15;9.48;;;6.90;99.90;;;;;;6303401;22;20368;-82
2021/12/26 15:32:15;;;;;;;14.70;10.43;;;6.90;99.90;;;;;;6285037;22;20046;-82
2021/12/26 15:35:04;;;;;;;11.95;9.32;;;6.80;99.90;;;;;;6281828;22;20031;-83
2021/12/26 15:37:53;;;;;;;12.27;9.80;;;6.70;99.90;;;;;;6282057;22;20023;-82
2021/12/26 15:40:40;;;;;;;12.18;9.88;;;6.70;99.90;;;;;;6281213;22;20295;-83
2021/12/26 15:43:34;;;;;;;14.88;11.10;;;6.70;99.90;;;;;;6260451;22;20039;-82
2021/12/26 15:46:22;;;;;;;13.10;11.13;;;6.70;99.90;;;;;;6279861;22;20027;-83
2021/12/26 15:49:11;;;;;;;19.13;12.63;;;6.70;99.90;;;;;;6304353;22;20486;-81
2021/12/26 15:51:59;;;;;;;15.32;11.48;;;6.70;99.90;;;;;;6262519;22;20034;-85
2021/12/26 15:54:46;;;;;;;13.77;11.45;;;6.70;99.90;;;;;;6280887;22;20034;-84
2021/12/26 15:57:34;;;;;;;15.85;12.45;;;6.70;99.90;;;;;;6282939;22;20019;-82
2021/12/26 16:00:22;;;;;;;16.58;12.60;;;6.70;99.90;;;;;;6304096;22;20045;-83
2021/12/26 16:03:11;;;;;;;17.33;13.13;;;6.60;99.90;;;;;;6282874;22;20035;-84
2021/12/26 16:05:59;;;;;;;17.67;13.88;;;6.70;99.90;;;;;;6280645;22;20469;-82
2021/12/26 16:08:49;;;;;;;18.23;13.70;;;6.60;99.90;;;;;;6281326;22;20027;-82
2021/12/26 16:11:40;;;;;;;17.95;14.40;;;6.60;99.90;;;;;;6281789;22;20029;-82
2021/12/26 16:14:28;;;;;;;19.17;13.75;;;6.60;99.90;;;;;;6280305;22;20027;-80
2021/12/26 16:17:16;;;;;;;18.70;13.98;;;6.60;99.90;;;;;;6281071;22;20023;-81
2021/12/26 16:20:09;;;;;;;20.05;15.05;;;6.70;99.90;;;;;;6261485;22;20028;-82
2021/12/26 16:22:59;;;;;;;20.08;15.05;;;6.60;99.90;;;;;;6281291;22;20050;-83
2021/12/26 16:25:48;;;;;;;21.27;15.00;;;6.60;99.90;;;;;;6270317;22;20023;-83
2021/12/26 16:28:39;;;;;;;23.15;16.08;;;6.60;99.90;;;;;;6283304;22;20114;-83
2021/12/26 16:31:26;;;;;;;21.73;15.60;;;6.60;99.90;;;;;;6279796;22;20019;-81
2021/12/26 16:34:14;;;;;;;21.40;17.02;;;6.60;99.90;;;;;;6239323;22;20454;-83
2021/12/26 16:37:05;;;;;;;24.67;17.52;;;6.60;99.90;;;;;;6282410;22;20027;-81
2021/12/26 16:39:53;;;;;;;24.60;18.92;;;6.60;99.90;;;;;;6281933;22;20019;-80
2021/12/26 16:42:40;;;;;;;29.67;19.63;;;6.60;99.90;;;;;;6280611;22;20038;-82
2021/12/26 16:45:38;;;;;;;25.98;18.83;;;6.50;99.90;;;;;;6263844;22;20023;-81
2021/12/26 16:48:26;;;;;;;30.75;18.90;;;6.50;99.90;;;;;;6239866;22;20020;-81
2021/12/26 16:51:16;;;;;;;26.60;19.17;;;6.50;99.90;;;;;;6239820;22;20023;-83
2021/12/26 16:54:05;;;;;;;29.13;18.90;;;6.60;99.90;;;;;;6305702;22;20027;-82
2021/12/26 16:56:55;;;;;;;31.20;19.88;;;6.50;99.90;;;;;;6305941;22;20027;-83
2021/12/26 16:59:48;;;;;;;33.03;20.83;;;6.50;99.90;;;;;;6281045;22;20027;-81
2021/12/26 17:02:59;;;;;;;33.38;22.90;;;6.50;99.90;;;;;;6302181;22;20094;-85
2021/12/26 17:05:52;;;;;;;39.88;26.95;;;6.50;99.90;;;;;;6281022;22;20071;-83
2021/12/26 17:08:44;;;;;;;;;;;6.40;99.90;;;;;;6279404;22;20323;-83
2021/12/26 17:11:31;;;;;;;57.10;37.65;;;6.40;99.90;;;;;;6284374;22;19919;-83
2021/12/26 17:14:19;;;;;;;47.95;30.45;;;6.40;99.90;;;;;;6282963;22;20035;-82
2021/12/26 17:17:11;;;;;;;42.22;24.77;;;6.40;99.90;;;;;;6282209;22;20091;-84
2021/12/26 17:20:15;;;;;;;41.50;26.20;;;6.40;99.90;;;;;;6269554;22;20196;-83
2021/12/26 17:23:06;;;;;;;44.03;27.25;;;6.40;99.90;;;;;;6265357;22;20024;-82
2021/12/26 17:25:54;;;;;;;43.92;28.38;;;6.40;99.90;;;;;;6264588;22;20027;-83